sensor_id;sensor_type;location;lat;lon;timestamp;temperature;humidity
7411;DHT22;3747;48.628;9.058;2023-01-25T00:00:26;0.50;99.90
7411;DHT22;3747;48.628;9.058;2023-01-25T00:02:52;0.50;99.90
7411;DHT22;3747;48.628;9.058;2023-01-25T00:05:19;0.50;99.90
7411;DHT22;3747;48.628;9.058;2023-01-25T00:07:47;0.50;99.90
7411;DHT22;3747;48.628;9.058;2023-01-25T00:10:14;0.50;99.90
7411;DHT22;3747;48.628;9.058;2023-01-25T00:12:41;0.50;99.90
7411;DHT22;3747;48.628;9.058;2023-01-25T00:15:08;0.50;99.90
7411;DHT22;3747;48.628;9.058;2023-01-25T00:17:35;0.50;99.90
7411;DHT22;3747;48.628;9.058;2023-01-25T00:20:02;0.50;99.90
7411;DHT22;3747;48.628;9.058;2023-01-25T00:22:29;0.50;99.90
7411;DHT22;3747;48.628;9.058;2023-01-25T00:24:57;0.50;99.90
7411;DHT22;3747;48.628;9.058;2023-01-25T00:27:24;0.50;99.90
7411;DHT22;3747;48.628;9.058;2023-01-25T00:29:50;0.50;99.90
7411;DHT22;3747;48.628;9.058;2023-01-25T00:32:32;0.50;99.90
7411;DHT22;3747;48.628;9.058;2023-01-25T00:35:02;0.50;99.90
7411;DHT22;3747;48.628;9.058;2023-01-25T00:37:35;0.50;99.90
7411;DHT22;3747;48.628;9.058;2023-01-25T00:40:05;0.50;99.90
7411;DHT22;3747;48.628;9.058;2023-01-25T00:42:31;0.60;99.90
7411;DHT22;3747;48.628;9.058;2023-01-25T00:44:58;0.60;99.90
7411;DHT22;3747;48.628;9.058;2023-01-25T00:47:25;0.60;99.90
7411;DHT22;3747;48.628;9.058;2023-01-25T00:49:52;0.60;99.90
7411;DHT22;3747;48.628;9.058;2023-01-25T00:52:19;0.70;99.90
7411;DHT22;3747;48.628;9.058;2023-01-25T00:54:46;0.60;99.90
7411;DHT22;3747;48.628;9.058;2023-01-25T00:57:14;0.60;99.90
7411;DHT22;3747;48.628;9.058;2023-01-25T00:59:41;0.60;99.90
7411;DHT22;3747;48.628;9.058;2023-01-25T01:02:09;0.60;99.90
7411;DHT22;3747;48.628;9.058;2023-01-25T01:04:36;0.60;99.90
7411;DHT22;3747;48.628;9.058;2023-01-25T01:07:02;0.60;99.90
7411;DHT22;3747;48.628;9.058;2023-01-25T01:09:29;0.60;99.90
7411;DHT22;3747;48.628;9.058;2023-01-25T01:11:56;0.50;99.90
7411;DHT22;3747;48.628;9.058;2023-01-25T01:14:24;0.60;99.90
7411;DHT22;3747;48.628;9.058;2023-01-25T01:16:51;0.60;99.90
7411;DHT22;3747;48.628;9.058;2023-01-25T01:19:17;0.60;99.90
7411;DHT22;3747;48.628;9.058;2023-01-25T01:21:44;0.60;99.90
7411;DHT22;3747;48.628;9.058;2023-01-25T01:24:11;0.70;99.90
7411;DHT22;3747;48.628;9.058;2023-01-25T01:26:38;0.60;99.90
7411;DHT22;3747;48.628;9.058;2023-01-25T01:29:05;0.70;99.90
7411;DHT22;3747;48.628;9.058;2023-01-25T01:31:33;0.60;99.90
7411;DHT22;3747;48.628;9.058;2023-01-25T01:34:00;0.60;99.90
7411;DHT22;3747;48.628;9.058;2023-01-25T01:36:28;0.60;99.90
7411;DHT22;3747;48.628;9.058;2023-01-25T01:38:56;0.60;99.90
7411;DHT22;3747;48.628;9.058;2023-01-25T01:41:23;0.60;99.90
7411;DHT22;3747;48.628;9.058;2023-01-25T01:43:50;0.60;99.90
7411;DHT22;3747;48.628;9.058;2023-01-25T01:46:22;0.70;99.90
7411;DHT22;3747;48.628;9.058;2023-01-25T01:48:54;0.60;99.90
7411;DHT22;3747;48.628;9.058;2023-01-25T01:51:25;0.60;99.90
7411;DHT22;3747;48.628;9.058;2023-01-25T01:53:59;0.60;99.90
7411;DHT22;3747;48.628;9.058;2023-01-25T01:56:31;0.60;99.90
7411;DHT22;3747;48.628;9.058;2023-01-25T01:59:01;0.60;99.90
7411;DHT22;3747;48.628;9.058;2023-01-25T02:01:30;0.70;99.90
7411;DHT22;3747;48.628;9.058;2023-01-25T02:03:59;0.70;99.90
7411;DHT22;3747;48.628;9.058;2023-01-25T02:06:31;0.70;99.90
7411;DHT22;3747;48.628;9.058;2023-01-25T02:09:00;0.70;99.90
7411;DHT22;3747;48.628;9.058;2023-01-25T02:11:28;0.70;99.90
7411;DHT22;3747;48.628;9.058;2023-01-25T02:13:57;0.70;99.90
7411;DHT22;3747;48.628;9.058;2023-01-25T02:16:26;0.70;99.90
7411;DHT22;3747;48.628;9.058;2023-01-25T02:18:55;0.70;99.90
7411;DHT22;3747;48.628;9.058;2023-01-25T02:21:24;0.70;99.90
7411;DHT22;3747;48.628;9.058;2023-01-25T02:23:54;0.70;99.90
7411;DHT22;3747;48.628;9.058;2023-01-25T02:26:24;0.70;99.90
7411;DHT22;3747;48.628;9.058;2023-01-25T02:28:54;0.60;99.90
7411;DHT22;3747;48.628;9.058;2023-01-25T02:31:23;0.60;99.90
7411;DHT22;3747;48.628;9.058;2023-01-25T02:33:49;0.60;99.90
7411;DHT22;3747;48.628;9.058;2023-01-25T02:36:20;0.60;99.90
7411;DHT22;3747;48.628;9.058;2023-01-25T02:38:50;0.60;99.90
7411;DHT22;3747;48.628;9.058;2023-01-25T02:41:23;0.60;99.90
7411;DHT22;3747;48.628;9.058;2023-01-25T02:43:51;0.70;99.90
7411;DHT22;3747;48.628;9.058;2023-01-25T02:46:22;0.70;99.90
7411;DHT22;3747;48.628;9.058;2023-01-25T02:48:50;0.70;99.90
7411;DHT22;3747;48.628;9.058;2023-01-25T02:51:18;0.70;99.90
7411;DHT22;3747;48.628;9.058;2023-01-25T02:53:44;0.70;99.90
7411;DHT22;3747;48.628;9.058;2023-01-25T02:56:11;0.70;99.90
7411;DHT22;3747;48.628;9.058;2023-01-25T02:58:39;0.70;99.90
7411;DHT22;3747;48.628;9.058;2023-01-25T03:01:06;0.70;99.90
7411;DHT22;3747;48.628;9.058;2023-01-25T03:03:33;0.70;99.90
7411;DHT22;3747;48.628;9.058;2023-01-25T03:06:00;0.70;99.90
7411;DHT22;3747;48.628;9.058;2023-01-25T03:08:26;0.60;99.90
7411;DHT22;3747;48.628;9.058;2023-01-25T03:10:55;0.60;99.90
7411;DHT22;3747;48.628;9.058;2023-01-25T03:13:23;0.70;99.90
7411;DHT22;3747;48.628;9.058;2023-01-25T03:15:52;0.70;99.90
7411;DHT22;3747;48.628;9.058;2023-01-25T03:18:23;0.70;99.90
7411;DHT22;3747;48.628;9.058;2023-01-25T03:20:50;0.70;99.90
7411;DHT22;3747;48.628;9.058;2023-01-25T03:23:17;0.80;99.90
7411;DHT22;3747;48.628;9.058;2023-01-25T03:25:43;0.80;99.90
7411;DHT22;3747;48.628;9.058;2023-01-25T03:28:10;0.80;99.90
7411;DHT22;3747;48.628;9.058;2023-01-25T03:30:37;0.80;99.90
7411;DHT22;3747;48.628;9.058;2023-01-25T03:33:05;0.80;99.90
7411;DHT22;3747;48.628;9.058;2023-01-25T03:35:32;0.90;99.90
7411;DHT22;3747;48.628;9.058;2023-01-25T03:37:59;0.90;99.90
7411;DHT22;3747;48.628;9.058;2023-01-25T03:40:26;0.80;99.90
7411;DHT22;3747;48.628;9.058;2023-01-25T03:42:52;0.80;99.90
7411;DHT22;3747;48.628;9.058;2023-01-25T03:45:19;0.80;99.90
7411;DHT22;3747;48.628;9.058;2023-01-25T03:47:46;0.90;99.90
7411;DHT22;3747;48.628;9.058;2023-01-25T03:50:14;0.90;99.90
7411;DHT22;3747;48.628;9.058;2023-01-25T03:52:41;0.80;99.90
7411;DHT22;3747;48.628;9.058;2023-01-25T03:55:10;0.80;99.90
7411;DHT22;3747;48.628;9.058;2023-01-25T03:57:36;0.90;99.90
7411;DHT22;3747;48.628;9.058;2023-01-25T04:00:04;0.80;99.90
7411;DHT22;3747;48.628;9.058;2023-01-25T04:02:31;0.80;99.90
7411;DHT22;3747;48.628;9.058;2023-01-25T04:04:57;0.70;99.90
7411;DHT22;3747;48.628;9.058;2023-01-25T04:07:25;0.70;99.90
7411;DHT22;3747;48.628;9.058;2023-01-25T04:09:52;0.80;99.90
7411;DHT22;3747;48.628;9.058;2023-01-25T04:12:19;0.80;99.90
7411;DHT22;3747;48.628;9.058;2023-01-25T04:14:45;0.70;99.90
7411;DHT22;3747;48.628;9.058;2023-01-25T04:17:12;0.70;99.90
7411;DHT22;3747;48.628;9.058;2023-01-25T04:19:39;0.70;99.90
7411;DHT22;3747;48.628;9.058;2023-01-25T04:22:05;0.70;99.90
7411;DHT22;3747;48.628;9.058;2023-01-25T04:24:34;0.60;99.90
7411;DHT22;3747;48.628;9.058;2023-01-25T04:27:01;0.60;99.90
7411;DHT22;3747;48.628;9.058;2023-01-25T04:29:28;0.60;99.90
7411;DHT22;3747;48.628;9.058;2023-01-25T04:31:54;0.60;99.90
7411;DHT22;3747;48.628;9.058;2023-01-25T04:34:21;0.60;99.90
7411;DHT22;3747;48.628;9.058;2023-01-25T04:36:48;0.60;99.90
7411;DHT22;3747;48.628;9.058;2023-01-25T04:39:15;0.60;99.90
7411;DHT22;3747;48.628;9.058;2023-01-25T04:41:43;0.70;99.90
7411;DHT22;3747;48.628;9.058;2023-01-25T04:44:10;0.70;99.90
7411;DHT22;3747;48.628;9.058;2023-01-25T04:46:37;0.70;99.90
7411;DHT22;3747;48.628;9.058;2023-01-25T04:49:03;0.70;99.90
7411;DHT22;3747;48.628;9.058;2023-01-25T04:51:30;0.70;99.90
7411;DHT22;3747;48.628;9.058;2023-01-25T04:53:57;0.80;99.90
7411;DHT22;3747;48.628;9.058;2023-01-25T04:56:23;0.80;99.90
7411;DHT22;3747;48.628;9.058;2023-01-25T04:58:52;0.80;99.90
7411;DHT22;3747;48.628;9.058;2023-01-25T05:01:18;0.80;99.90
7411;DHT22;3747;48.628;9.058;2023-01-25T05:03:45;0.80;99.90
7411;DHT22;3747;48.628;9.058;2023-01-25T05:06:12;0.80;99.90
7411;DHT22;3747;48.628;9.058;2023-01-25T05:08:38;0.80;99.90
7411;DHT22;3747;48.628;9.058;2023-01-25T05:11:05;0.80;99.90
7411;DHT22;3747;48.628;9.058;2023-01-25T05:13:32;0.80;99.90
7411;DHT22;3747;48.628;9.058;2023-01-25T05:16:00;0.80;99.90
7411;DHT22;3747;48.628;9.058;2023-01-25T05:18:26;0.80;99.90
7411;DHT22;3747;48.628;9.058;2023-01-25T05:20:53;0.80;99.90
7411;DHT22;3747;48.628;9.058;2023-01-25T05:23:21;0.80;99.90
7411;DHT22;3747;48.628;9.058;2023-01-25T05:25:48;0.80;99.90
7411;DHT22;3747;48.628;9.058;2023-01-25T05:28:43;0.80;99.90
7411;DHT22;3747;48.628;9.058;2023-01-25T05:31:11;0.80;99.90
7411;DHT22;3747;48.628;9.058;2023-01-25T05:33:38;0.80;99.90
7411;DHT22;3747;48.628;9.058;2023-01-25T05:36:05;0.80;99.90
7411;DHT22;3747;48.628;9.058;2023-01-25T05:38:32;0.70;99.90
7411;DHT22;3747;48.628;9.058;2023-01-25T05:40:58;0.80;99.90
7411;DHT22;3747;48.628;9.058;2023-01-25T05:43:25;0.80;99.90
7411;DHT22;3747;48.628;9.058;2023-01-25T05:45:52;0.80;99.90
7411;DHT22;3747;48.628;9.058;2023-01-25T05:48:20;0.80;99.90
7411;DHT22;3747;48.628;9.058;2023-01-25T05:50:46;0.70;99.90
7411;DHT22;3747;48.628;9.058;2023-01-25T05:53:13;0.70;99.90
7411;DHT22;3747;48.628;9.058;2023-01-25T05:55:40;0.70;99.90
7411;DHT22;3747;48.628;9.058;2023-01-25T05:58:06;0.60;99.90
7411;DHT22;3747;48.628;9.058;2023-01-25T06:00:33;0.60;99.90
7411;DHT22;3747;48.628;9.058;2023-01-25T06:03:00;0.60;99.90
7411;DHT22;3747;48.628;9.058;2023-01-25T06:05:28;0.60;99.90
7411;DHT22;3747;48.628;9.058;2023-01-25T06:07:55;0.60;99.90
7411;DHT22;3747;48.628;9.058;2023-01-25T06:10:23;0.60;99.90
7411;DHT22;3747;48.628;9.058;2023-01-25T06:12:49;0.70;99.90
7411;DHT22;3747;48.628;9.058;2023-01-25T06:15:16;0.70;99.90
7411;DHT22;3747;48.628;9.058;2023-01-25T06:17:43;0.70;99.90
7411;DHT22;3747;48.628;9.058;2023-01-25T06:20:10;0.70;99.90
7411;DHT22;3747;48.628;9.058;2023-01-25T06:22:38;0.70;99.90
7411;DHT22;3747;48.628;9.058;2023-01-25T06:25:06;0.70;99.90
7411;DHT22;3747;48.628;9.058;2023-01-25T06:27:32;0.70;99.90
7411;DHT22;3747;48.628;9.058;2023-01-25T06:29:59;0.70;99.90
7411;DHT22;3747;48.628;9.058;2023-01-25T06:32:30;0.70;99.90
7411;DHT22;3747;48.628;9.058;2023-01-25T06:34:57;0.70;99.90
7411;DHT22;3747;48.628;9.058;2023-01-25T06:37:24;0.70;99.90
7411;DHT22;3747;48.628;9.058;2023-01-25T06:39:52;0.70;99.90
7411;DHT22;3747;48.628;9.058;2023-01-25T06:42:18;0.70;99.90
7411;DHT22;3747;48.628;9.058;2023-01-25T06:44:45;0.70;99.90
7411;DHT22;3747;48.628;9.058;2023-01-25T06:47:12;0.70;99.90
7411;DHT22;3747;48.628;9.058;2023-01-25T06:49:38;0.70;99.90
7411;DHT22;3747;48.628;9.058;2023-01-25T06:52:05;0.70;99.90
7411;DHT22;3747;48.628;9.058;2023-01-25T06:54:32;0.70;99.90
7411;DHT22;3747;48.628;9.058;2023-01-25T06:57:00;0.70;99.90
7411;DHT22;3747;48.628;9.058;2023-01-25T06:59:27;0.70;99.90
7411;DHT22;3747;48.628;9.058;2023-01-25T07:01:54;0.80;99.90
7411;DHT22;3747;48.628;9.058;2023-01-25T07:04:21;0.80;99.90
7411;DHT22;3747;48.628;9.058;2023-01-25T07:06:47;0.80;99.90
7411;DHT22;3747;48.628;9.058;2023-01-25T07:09:14;0.80;99.90
7411;DHT22;3747;48.628;9.058;2023-01-25T07:11:41;0.80;99.90
7411;DHT22;3747;48.628;9.058;2023-01-25T07:14:09;0.80;99.90
7411;DHT22;3747;48.628;9.058;2023-01-25T07:16:36;0.80;99.90
7411;DHT22;3747;48.628;9.058;2023-01-25T07:19:03;0.80;99.90
7411;DHT22;3747;48.628;9.058;2023-01-25T07:21:30;0.80;99.90
7411;DHT22;3747;48.628;9.058;2023-01-25T07:23:59;0.80;99.90
7411;DHT22;3747;48.628;9.058;2023-01-25T07:26:26;0.80;99.90
7411;DHT22;3747;48.628;9.058;2023-01-25T07:28:55;0.80;99.90
7411;DHT22;3747;48.628;9.058;2023-01-25T07:31:23;0.80;99.90
7411;DHT22;3747;48.628;9.058;2023-01-25T07:33:51;0.80;99.90
7411;DHT22;3747;48.628;9.058;2023-01-25T07:36:19;0.80;99.90
7411;DHT22;3747;48.628;9.058;2023-01-25T07:38:47;0.80;99.90
7411;DHT22;3747;48.628;9.058;2023-01-25T07:41:14;0.80;99.90
7411;DHT22;3747;48.628;9.058;2023-01-25T07:43:41;0.80;99.90
7411;DHT22;3747;48.628;9.058;2023-01-25T07:46:10;0.80;99.90
7411;DHT22;3747;48.628;9.058;2023-01-25T07:48:40;0.80;99.90
7411;DHT22;3747;48.628;9.058;2023-01-25T07:51:10;0.90;99.90
7411;DHT22;3747;48.628;9.058;2023-01-25T07:53:37;0.90;99.90
7411;DHT22;3747;48.628;9.058;2023-01-25T07:56:05;0.90;99.90
7411;DHT22;3747;48.628;9.058;2023-01-25T07:58:31;0.90;99.90
7411;DHT22;3747;48.628;9.058;2023-01-25T08:01:05;1.00;99.90
7411;DHT22;3747;48.628;9.058;2023-01-25T08:03:32;1.00;99.90
7411;DHT22;3747;48.628;9.058;2023-01-25T08:06:00;0.90;99.90
7411;DHT22;3747;48.628;9.058;2023-01-25T08:08:29;0.90;99.90
7411;DHT22;3747;48.628;9.058;2023-01-25T08:10:58;0.80;99.90
7411;DHT22;3747;48.628;9.058;2023-01-25T08:13:25;0.90;99.90
7411;DHT22;3747;48.628;9.058;2023-01-25T08:15:55;0.90;99.90
7411;DHT22;3747;48.628;9.058;2023-01-25T08:18:21;0.90;99.90
7411;DHT22;3747;48.628;9.058;2023-01-25T08:20:50;0.90;99.90
7411;DHT22;3747;48.628;9.058;2023-01-25T08:23:18;0.90;99.90
7411;DHT22;3747;48.628;9.058;2023-01-25T08:25:44;0.90;99.90
7411;DHT22;3747;48.628;9.058;2023-01-25T08:28:11;0.90;99.90
7411;DHT22;3747;48.628;9.058;2023-01-25T08:30:38;0.90;99.90
7411;DHT22;3747;48.628;9.058;2023-01-25T08:33:05;0.90;99.90
7411;DHT22;3747;48.628;9.058;2023-01-25T08:35:31;0.90;99.90
7411;DHT22;3747;48.628;9.058;2023-01-25T08:38:00;0.80;99.90
7411;DHT22;3747;48.628;9.058;2023-01-25T08:40:28;0.90;99.90
7411;DHT22;3747;48.628;9.058;2023-01-25T08:42:55;0.90;99.90
7411;DHT22;3747;48.628;9.058;2023-01-25T08:45:21;0.90;99.90
7411;DHT22;3747;48.628;9.058;2023-01-25T08:47:48;1.00;99.90
7411;DHT22;3747;48.628;9.058;2023-01-25T08:50:15;1.00;99.90
7411;DHT22;3747;48.628;9.058;2023-01-25T08:52:42;1.00;99.90
7411;DHT22;3747;48.628;9.058;2023-01-25T08:55:09;1.00;99.90
7411;DHT22;3747;48.628;9.058;2023-01-25T08:57:37;1.00;99.90
7411;DHT22;3747;48.628;9.058;2023-01-25T09:00:04;1.10;99.90
7411;DHT22;3747;48.628;9.058;2023-01-25T09:02:31;1.00;99.90
7411;DHT22;3747;48.628;9.058;2023-01-25T09:04:58;1.00;99.90
7411;DHT22;3747;48.628;9.058;2023-01-25T09:07:25;1.00;99.90
7411;DHT22;3747;48.628;9.058;2023-01-25T09:09:51;1.00;99.90
7411;DHT22;3747;48.628;9.058;2023-01-25T09:12:18;0.90;99.90
7411;DHT22;3747;48.628;9.058;2023-01-25T09:14:46;0.90;99.90
7411;DHT22;3747;48.628;9.058;2023-01-25T09:17:13;0.90;99.90
7411;DHT22;3747;48.628;9.058;2023-01-25T09:19:39;0.90;99.90
7411;DHT22;3747;48.628;9.058;2023-01-25T09:22:07;0.90;99.90
7411;DHT22;3747;48.628;9.058;2023-01-25T09:24:33;0.80;99.90
7411;DHT22;3747;48.628;9.058;2023-01-25T09:27:00;0.80;99.90
7411;DHT22;3747;48.628;9.058;2023-01-25T09:29:27;0.80;99.90
7411;DHT22;3747;48.628;9.058;2023-01-25T09:31:55;1.00;99.90
7411;DHT22;3747;48.628;9.058;2023-01-25T09:34:21;1.00;99.90
7411;DHT22;3747;48.628;9.058;2023-01-25T09:36:48;1.10;99.90
7411;DHT22;3747;48.628;9.058;2023-01-25T09:39:15;1.20;99.90
7411;DHT22;3747;48.628;9.058;2023-01-25T09:45:06;1.20;99.90
7411;DHT22;3747;48.628;9.058;2023-01-25T09:47:42;1.20;99.90
7411;DHT22;3747;48.628;9.058;2023-01-25T09:50:25;1.30;99.90
7411;DHT22;3747;48.628;9.058;2023-01-25T09:53:09;1.10;99.90
7411;DHT22;3747;48.628;9.058;2023-01-25T09:55:39;1.00;99.90
7411;DHT22;3747;48.628;9.058;2023-01-25T09:58:11;1.10;99.90
7411;DHT22;3747;48.628;9.058;2023-01-25T10:00:43;1.00;99.90
7411;DHT22;3747;48.628;9.058;2023-01-25T10:03:20;1.10;99.90
7411;DHT22;3747;48.628;9.058;2023-01-25T10:05:49;1.10;99.90
7411;DHT22;3747;48.628;9.058;2023-01-25T10:08:22;1.20;99.90
7411;DHT22;3747;48.628;9.058;2023-01-25T10:10:57;1.20;99.90
7411;DHT22;3747;48.628;9.058;2023-01-25T10:13:26;1.30;99.90
7411;DHT22;3747;48.628;9.058;2023-01-25T10:16:00;1.20;99.90
7411;DHT22;3747;48.628;9.058;2023-01-25T10:18:32;1.20;99.90
7411;DHT22;3747;48.628;9.058;2023-01-25T10:21:02;1.30;99.90
7411;DHT22;3747;48.628;9.058;2023-01-25T10:23:45;1.30;99.90
7411;DHT22;3747;48.628;9.058;2023-01-25T10:26:19;1.20;99.90
7411;DHT22;3747;48.628;9.058;2023-01-25T10:28:51;1.20;99.90
7411;DHT22;3747;48.628;9.058;2023-01-25T10:31:28;1.20;99.90
7411;DHT22;3747;48.628;9.058;2023-01-25T10:33:58;1.20;99.90
7411;DHT22;3747;48.628;9.058;2023-01-25T10:36:29;1.20;99.90
7411;DHT22;3747;48.628;9.058;2023-01-25T10:38:56;1.30;99.90
7411;DHT22;3747;48.628;9.058;2023-01-25T10:41:29;1.30;99.90
7411;DHT22;3747;48.628;9.058;2023-01-25T10:43:57;1.30;99.90
7411;DHT22;3747;48.628;9.058;2023-01-25T10:46:39;1.30;99.90
7411;DHT22;3747;48.628;9.058;2023-01-25T10:49:19;1.40;99.90
7411;DHT22;3747;48.628;9.058;2023-01-25T10:51:47;1.40;99.90
7411;DHT22;3747;48.628;9.058;2023-01-25T10:54:14;1.40;99.90
7411;DHT22;3747;48.628;9.058;2023-01-25T10:56:43;1.30;99.90
7411;DHT22;3747;48.628;9.058;2023-01-25T10:59:22;1.10;99.90
7411;DHT22;3747;48.628;9.058;2023-01-25T11:01:49;1.10;99.90
7411;DHT22;3747;48.628;9.058;2023-01-25T11:04:31;1.10;99.90
7411;DHT22;3747;48.628;9.058;2023-01-25T11:06:59;1.00;99.90
7411;DHT22;3747;48.628;9.058;2023-01-25T11:09:32;1.00;99.90
7411;DHT22;3747;48.628;9.058;2023-01-25T11:12:01;1.00;99.90
7411;DHT22;3747;48.628;9.058;2023-01-25T11:14:30;1.00;99.90
7411;DHT22;3747;48.628;9.058;2023-01-25T11:16:58;1.00;99.90
7411;DHT22;3747;48.628;9.058;2023-01-25T11:19:27;1.10;99.90
7411;DHT22;3747;48.628;9.058;2023-01-25T11:21:59;1.20;99.90
7411;DHT22;3747;48.628;9.058;2023-01-25T11:24:27;1.20;99.90
7411;DHT22;3747;48.628;9.058;2023-01-25T11:27:17;1.20;99.90
7411;DHT22;3747;48.628;9.058;2023-01-25T11:29:44;1.10;99.90
7411;DHT22;3747;48.628;9.058;2023-01-25T11:32:16;1.10;99.90
7411;DHT22;3747;48.628;9.058;2023-01-25T11:34:47;1.10;99.90
7411;DHT22;3747;48.628;9.058;2023-01-25T11:37:39;1.00;99.90
7411;DHT22;3747;48.628;9.058;2023-01-25T11:40:15;1.10;99.90
7411;DHT22;3747;48.628;9.058;2023-01-25T11:42:50;1.20;99.90
7411;DHT22;3747;48.628;9.058;2023-01-25T11:48:42;1.20;99.90
7411;DHT22;3747;48.628;9.058;2023-01-25T11:51:14;1.10;99.90
7411;DHT22;3747;48.628;9.058;2023-01-25T11:53:55;1.10;99.90
7411;DHT22;3747;48.628;9.058;2023-01-25T11:56:34;1.00;99.90
7411;DHT22;3747;48.628;9.058;2023-01-25T11:59:20;1.00;99.90
7411;DHT22;3747;48.628;9.058;2023-01-25T12:02:06;1.00;99.90
7411;DHT22;3747;48.628;9.058;2023-01-25T12:04:51;1.00;99.90
7411;DHT22;3747;48.628;9.058;2023-01-25T12:07:27;0.90;99.90
7411;DHT22;3747;48.628;9.058;2023-01-25T12:10:14;0.90;99.90
7411;DHT22;3747;48.628;9.058;2023-01-25T12:12:49;0.90;99.90
7411;DHT22;3747;48.628;9.058;2023-01-25T12:15:43;0.90;99.90
7411;DHT22;3747;48.628;9.058;2023-01-25T12:18:35;0.90;99.90
7411;DHT22;3747;48.628;9.058;2023-01-25T12:21:14;1.00;99.90
7411;DHT22;3747;48.628;9.058;2023-01-25T12:24:02;1.00;99.90
7411;DHT22;3747;48.628;9.058;2023-01-25T12:26:39;1.10;99.90
7411;DHT22;3747;48.628;9.058;2023-01-25T12:29:18;1.20;99.90
7411;DHT22;3747;48.628;9.058;2023-01-25T12:31:50;1.20;99.90
7411;DHT22;3747;48.628;9.058;2023-01-25T12:34:22;1.20;99.90
7411;DHT22;3747;48.628;9.058;2023-01-25T12:36:50;1.30;99.90
7411;DHT22;3747;48.628;9.058;2023-01-25T12:39:20;1.20;99.90
7411;DHT22;3747;48.628;9.058;2023-01-25T12:41:52;1.30;99.90
7411;DHT22;3747;48.628;9.058;2023-01-25T12:44:24;1.30;99.90
7411;DHT22;3747;48.628;9.058;2023-01-25T12:46:57;1.50;99.90
7411;DHT22;3747;48.628;9.058;2023-01-25T12:49:30;1.40;99.90
7411;DHT22;3747;48.628;9.058;2023-01-25T12:52:04;1.20;99.90
7411;DHT22;3747;48.628;9.058;2023-01-25T12:54:36;1.10;99.90
7411;DHT22;3747;48.628;9.058;2023-01-25T12:57:10;1.10;99.90
7411;DHT22;3747;48.628;9.058;2023-01-25T12:59:46;1.10;99.90
7411;DHT22;3747;48.628;9.058;2023-01-25T13:02:29;1.10;99.90
7411;DHT22;3747;48.628;9.058;2023-01-25T13:05:02;1.00;99.90
7411;DHT22;3747;48.628;9.058;2023-01-25T13:07:42;1.10;99.90
7411;DHT22;3747;48.628;9.058;2023-01-25T13:10:14;1.20;99.90
7411;DHT22;3747;48.628;9.058;2023-01-25T13:12:52;1.20;99.90
7411;DHT22;3747;48.628;9.058;2023-01-25T13:15:37;1.20;99.90
7411;DHT22;3747;48.628;9.058;2023-01-25T13:18:35;1.30;99.90
7411;DHT22;3747;48.628;9.058;2023-01-25T13:21:06;1.30;99.90
7411;DHT22;3747;48.628;9.058;2023-01-25T13:23:36;1.40;99.90
7411;DHT22;3747;48.628;9.058;2023-01-25T13:26:36;1.40;99.90
7411;DHT22;3747;48.628;9.058;2023-01-25T13:35:37;1.30;99.90
7411;DHT22;3747;48.628;9.058;2023-01-25T13:38:29;1.10;99.90
7411;DHT22;3747;48.628;9.058;2023-01-25T13:41:08;1.10;99.90
7411;DHT22;3747;48.628;9.058;2023-01-25T13:43:39;1.10;99.90
7411;DHT22;3747;48.628;9.058;2023-01-25T13:46:10;1.00;99.90
7411;DHT22;3747;48.628;9.058;2023-01-25T13:48:45;1.10;99.90
7411;DHT22;3747;48.628;9.058;2023-01-25T13:51:13;1.20;99.90
7411;DHT22;3747;48.628;9.058;2023-01-25T13:53:54;1.20;99.90
7411;DHT22;3747;48.628;9.058;2023-01-25T13:56:28;1.20;99.90
7411;DHT22;3747;48.628;9.058;2023-01-25T13:58:56;1.10;99.90
7411;DHT22;3747;48.628;9.058;2023-01-25T14:01:24;1.10;99.90
7411;DHT22;3747;48.628;9.058;2023-01-25T14:03:54;1.20;99.90
7411;DHT22;3747;48.628;9.058;2023-01-25T14:06:25;1.20;99.90
7411;DHT22;3747;48.628;9.058;2023-01-25T14:08:54;1.20;99.90
7411;DHT22;3747;48.628;9.058;2023-01-25T14:11:24;1.10;99.90
7411;DHT22;3747;48.628;9.058;2023-01-25T14:13:59;1.10;99.90
7411;DHT22;3747;48.628;9.058;2023-01-25T14:16:28;1.10;99.90
7411;DHT22;3747;48.628;9.058;2023-01-25T14:18:56;1.10;99.90
7411;DHT22;3747;48.628;9.058;2023-01-25T14:21:23;1.10;99.90
7411;DHT22;3747;48.628;9.058;2023-01-25T14:23:50;1.10;99.90
7411;DHT22;3747;48.628;9.058;2023-01-25T14:26:20;1.10;99.90
7411;DHT22;3747;48.628;9.058;2023-01-25T14:28:50;1.10;99.90
7411;DHT22;3747;48.628;9.058;2023-01-25T14:31:24;1.10;99.90
7411;DHT22;3747;48.628;9.058;2023-01-25T14:33:53;1.10;99.90
7411;DHT22;3747;48.628;9.058;2023-01-25T14:36:25;1.10;99.90
7411;DHT22;3747;48.628;9.058;2023-01-25T14:38:52;1.00;99.90
7411;DHT22;3747;48.628;9.058;2023-01-25T14:41:23;1.00;99.90
7411;DHT22;3747;48.628;9.058;2023-01-25T14:43:53;0.90;99.90
7411;DHT22;3747;48.628;9.058;2023-01-25T14:46:23;0.80;99.90
7411;DHT22;3747;48.628;9.058;2023-01-25T14:48:51;0.80;99.90
7411;DHT22;3747;48.628;9.058;2023-01-25T14:51:33;0.80;99.90
7411;DHT22;3747;48.628;9.058;2023-01-25T14:54:01;0.70;99.90
7411;DHT22;3747;48.628;9.058;2023-01-25T14:56:33;0.70;99.90
7411;DHT22;3747;48.628;9.058;2023-01-25T14:59:00;0.70;99.90
7411;DHT22;3747;48.628;9.058;2023-01-25T15:01:32;0.70;99.90
7411;DHT22;3747;48.628;9.058;2023-01-25T15:04:00;0.70;99.90
7411;DHT22;3747;48.628;9.058;2023-01-25T15:06:27;0.60;99.90
7411;DHT22;3747;48.628;9.058;2023-01-25T15:08:55;0.60;99.90
7411;DHT22;3747;48.628;9.058;2023-01-25T15:11:27;0.60;99.90
7411;DHT22;3747;48.628;9.058;2023-01-25T15:14:14;0.60;99.90
7411;DHT22;3747;48.628;9.058;2023-01-25T15:16:42;0.50;99.90
7411;DHT22;3747;48.628;9.058;2023-01-25T15:19:26;0.50;99.90
7411;DHT22;3747;48.628;9.058;2023-01-25T15:21:55;0.50;99.90
7411;DHT22;3747;48.628;9.058;2023-01-25T15:24:24;0.50;99.90
7411;DHT22;3747;48.628;9.058;2023-01-25T15:26:52;0.40;99.90
7411;DHT22;3747;48.628;9.058;2023-01-25T15:29:21;0.40;99.90
7411;DHT22;3747;48.628;9.058;2023-01-25T15:31:49;0.50;99.90
7411;DHT22;3747;48.628;9.058;2023-01-25T15:34:17;0.50;99.90
7411;DHT22;3747;48.628;9.058;2023-01-25T15:36:45;0.50;99.90
7411;DHT22;3747;48.628;9.058;2023-01-25T15:39:15;0.50;99.90
7411;DHT22;3747;48.628;9.058;2023-01-25T15:41:44;0.40;99.90
7411;DHT22;3747;48.628;9.058;2023-01-25T15:44:11;0.40;99.90
7411;DHT22;3747;48.628;9.058;2023-01-25T15:46:39;0.40;99.90
7411;DHT22;3747;48.628;9.058;2023-01-25T15:49:12;0.40;99.90
7411;DHT22;3747;48.628;9.058;2023-01-25T15:51:39;0.40;99.90
7411;DHT22;3747;48.628;9.058;2023-01-25T15:54:06;0.30;99.90
7411;DHT22;3747;48.628;9.058;2023-01-25T15:56:34;0.30;99.90
7411;DHT22;3747;48.628;9.058;2023-01-25T15:59:07;0.30;99.90
7411;DHT22;3747;48.628;9.058;2023-01-25T16:01:34;0.30;99.90
7411;DHT22;3747;48.628;9.058;2023-01-25T16:04:01;0.20;99.90
7411;DHT22;3747;48.628;9.058;2023-01-25T16:06:32;0.20;99.90
7411;DHT22;3747;48.628;9.058;2023-01-25T16:09:02;0.10;99.90
7411;DHT22;3747;48.628;9.058;2023-01-25T16:11:31;0.00;99.90
7411;DHT22;3747;48.628;9.058;2023-01-25T16:13:58;0.00;99.90
7411;DHT22;3747;48.628;9.058;2023-01-25T16:16:26;0.00;99.90
7411;DHT22;3747;48.628;9.058;2023-01-25T16:18:52;0.00;99.90
7411;DHT22;3747;48.628;9.058;2023-01-25T16:21:19;0.10;99.90
7411;DHT22;3747;48.628;9.058;2023-01-25T16:23:46;0.10;99.90
7411;DHT22;3747;48.628;9.058;2023-01-25T16:26:18;0.10;99.90
7411;DHT22;3747;48.628;9.058;2023-01-25T16:28:45;0.10;99.90
7411;DHT22;3747;48.628;9.058;2023-01-25T16:31:13;0.10;99.90
7411;DHT22;3747;48.628;9.058;2023-01-25T16:33:41;0.10;99.90
7411;DHT22;3747;48.628;9.058;2023-01-25T16:36:14;0.10;99.90
7411;DHT22;3747;48.628;9.058;2023-01-25T16:38:41;0.10;99.90
7411;DHT22;3747;48.628;9.058;2023-01-25T16:41:08;0.10;99.90
7411;DHT22;3747;48.628;9.058;2023-01-25T16:43:38;0.10;99.90
7411;DHT22;3747;48.628;9.058;2023-01-25T16:46:08;0.10;99.90